sensor_id;sensor_type;location;lat;lon;timestamp;P1;durP1;ratioP1;P2;durP2;ratioP2
9330;SDS011;4704;50.470;12.072;2022-09-16T00:01:29;0.70;;;0.70;;
9330;SDS011;4704;50.470;12.072;2022-09-16T00:03:56;1.08;;;0.70;;
9330;SDS011;4704;50.470;12.072;2022-09-16T00:06:25;0.65;;;0.65;;
9330;SDS011;4704;50.470;12.072;2022-09-16T00:08:53;0.93;;;0.70;;
9330;SDS011;4704;50.470;12.072;2022-09-16T00:11:21;0.70;;;0.70;;
9330;SDS011;4704;50.470;12.072;2022-09-16T00:13:48;0.75;;;0.75;;
9330;SDS011;4704;50.470;12.072;2022-09-16T00:16:17;0.70;;;0.70;;
9330;SDS011;4704;50.470;12.072;2022-09-16T00:18:46;0.82;;;0.82;;
9330;SDS011;4704;50.470;12.072;2022-09-16T00:21:14;0.80;;;0.70;;
9330;SDS011;4704;50.470;12.072;2022-09-16T00:23:41;0.90;;;0.65;;
9330;SDS011;4704;50.470;12.072;2022-09-16T00:26:09;0.80;;;0.80;;
9330;SDS011;4704;50.470;12.072;2022-09-16T00:28:36;0.75;;;0.75;;
9330;SDS011;4704;50.470;12.072;2022-09-16T00:31:04;0.70;;;0.70;;
9330;SDS011;4704;50.470;12.072;2022-09-16T00:33:31;0.82;;;0.82;;
9330;SDS011;4704;50.470;12.072;2022-09-16T00:36:07;0.80;;;0.80;;
9330;SDS011;4704;50.470;12.072;2022-09-16T00:38:35;0.50;;;0.50;;
9330;SDS011;4704;50.470;12.072;2022-09-16T00:41:03;0.70;;;0.70;;
9330;SDS011;4704;50.470;12.072;2022-09-16T00:43:45;1.40;;;0.70;;
9330;SDS011;4704;50.470;12.072;2022-09-16T00:46:13;0.80;;;0.70;;
9330;SDS011;4704;50.470;12.072;2022-09-16T00:48:40;0.70;;;0.70;;
9330;SDS011;4704;50.470;12.072;2022-09-16T00:51:09;0.85;;;0.85;;
9330;SDS011;4704;50.470;12.072;2022-09-16T00:53:38;0.63;;;0.63;;
9330;SDS011;4704;50.470;12.072;2022-09-16T00:56:07;0.68;;;0.68;;
9330;SDS011;4704;50.470;12.072;2022-09-16T00:58:37;0.80;;;0.80;;
9330;SDS011;4704;50.470;12.072;2022-09-16T01:01:06;0.90;;;0.70;;
9330;SDS011;4704;50.470;12.072;2022-09-16T01:03:34;0.80;;;0.80;;
9330;SDS011;4704;50.470;12.072;2022-09-16T01:06:04;0.80;;;0.80;;
9330;SDS011;4704;50.470;12.072;2022-09-16T01:08:34;0.80;;;0.80;;
9330;SDS011;4704;50.470;12.072;2022-09-16T01:11:01;0.65;;;0.65;;
9330;SDS011;4704;50.470;12.072;2022-09-16T01:13:28;0.90;;;0.90;;
9330;SDS011;4704;50.470;12.072;2022-09-16T01:15:57;0.73;;;0.70;;
9330;SDS011;4704;50.470;12.072;2022-09-16T01:18:27;0.60;;;0.60;;
9330;SDS011;4704;50.470;12.072;2022-09-16T01:21:10;0.70;;;0.70;;
9330;SDS011;4704;50.470;12.072;2022-09-16T01:26:35;0.90;;;0.90;;
9330;SDS011;4704;50.470;12.072;2022-09-16T01:29:22;0.70;;;0.70;;
9330;SDS011;4704;50.470;12.072;2022-09-16T01:31:54;1.02;;;0.93;;
9330;SDS011;4704;50.470;12.072;2022-09-16T01:34:29;0.88;;;0.88;;
9330;SDS011;4704;50.470;12.072;2022-09-16T01:37:02;0.90;;;0.90;;
9330;SDS011;4704;50.470;12.072;2022-09-16T01:39:34;0.68;;;0.65;;
9330;SDS011;4704;50.470;12.072;2022-09-16T01:42:07;0.70;;;0.70;;
9330;SDS011;4704;50.470;12.072;2022-09-16T01:44:41;0.90;;;0.90;;
9330;SDS011;4704;50.470;12.072;2022-09-16T01:47:15;0.80;;;0.80;;
9330;SDS011;4704;50.470;12.072;2022-09-16T01:49:49;0.77;;;0.77;;
9330;SDS011;4704;50.470;12.072;2022-09-16T01:52:22;0.73;;;0.73;;
9330;SDS011;4704;50.470;12.072;2022-09-16T01:54:52;0.63;;;0.60;;
9330;SDS011;4704;50.470;12.072;2022-09-16T01:57:22;1.65;;;0.95;;
9330;SDS011;4704;50.470;12.072;2022-09-16T01:59:54;0.65;;;0.65;;
9330;SDS011;4704;50.470;12.072;2022-09-16T02:02:25;0.70;;;0.70;;
9330;SDS011;4704;50.470;12.072;2022-09-16T02:04:55;0.80;;;0.80;;
9330;SDS011;4704;50.470;12.072;2022-09-16T02:07:24;0.70;;;0.70;;
9330;SDS011;4704;50.470;12.072;2022-09-16T02:09:54;0.80;;;0.80;;
9330;SDS011;4704;50.470;12.072;2022-09-16T02:12:23;0.80;;;0.80;;
9330;SDS011;4704;50.470;12.072;2022-09-16T02:14:52;0.90;;;0.90;;
9330;SDS011;4704;50.470;12.072;2022-09-16T02:17:25;1.00;;;1.00;;
9330;SDS011;4704;50.470;12.072;2022-09-16T02:19:54;0.90;;;0.80;;
9330;SDS011;4704;50.470;12.072;2022-09-16T02:22:24;0.90;;;0.90;;
9330;SDS011;4704;50.470;12.072;2022-09-16T02:24:54;0.70;;;0.70;;
9330;SDS011;4704;50.470;12.072;2022-09-16T02:27:22;1.33;;;1.08;;
9330;SDS011;4704;50.470;12.072;2022-09-16T02:29:50;0.70;;;0.70;;
9330;SDS011;4704;50.470;12.072;2022-09-16T02:32:19;0.93;;;0.85;;
9330;SDS011;4704;50.470;12.072;2022-09-16T02:34:49;0.95;;;0.95;;
9330;SDS011;4704;50.470;12.072;2022-09-16T02:37:19;0.70;;;0.70;;
9330;SDS011;4704;50.470;12.072;2022-09-16T02:39:48;0.73;;;0.70;;
9330;SDS011;4704;50.470;12.072;2022-09-16T02:42:16;1.02;;;1.00;;
9330;SDS011;4704;50.470;12.072;2022-09-16T02:44:43;0.73;;;0.73;;
9330;SDS011;4704;50.470;12.072;2022-09-16T02:47:13;0.85;;;0.85;;
9330;SDS011;4704;50.470;12.072;2022-09-16T02:49:43;0.70;;;0.70;;
9330;SDS011;4704;50.470;12.072;2022-09-16T02:52:15;0.80;;;0.80;;
9330;SDS011;4704;50.470;12.072;2022-09-16T02:54:46;0.80;;;0.80;;
9330;SDS011;4704;50.470;12.072;2022-09-16T02:57:15;0.88;;;0.80;;
9330;SDS011;4704;50.470;12.072;2022-09-16T02:59:42;0.80;;;0.80;;
9330;SDS011;4704;50.470;12.072;2022-09-16T03:02:10;0.70;;;0.70;;
9330;SDS011;4704;50.470;12.072;2022-09-16T03:04:38;0.70;;;0.70;;
9330;SDS011;4704;50.470;12.072;2022-09-16T03:07:07;0.90;;;0.90;;
9330;SDS011;4704;50.470;12.072;2022-09-16T03:09:37;0.80;;;0.80;;
9330;SDS011;4704;50.470;12.072;2022-09-16T03:12:11;0.90;;;0.90;;
9330;SDS011;4704;50.470;12.072;2022-09-16T03:17:31;0.80;;;0.80;;
9330;SDS011;4704;50.470;12.072;2022-09-16T03:20:02;0.77;;;0.77;;
9330;SDS011;4704;50.470;12.072;2022-09-16T03:22:36;0.90;;;0.90;;
9330;SDS011;4704;50.470;12.072;2022-09-16T03:25:06;0.80;;;0.80;;
9330;SDS011;4704;50.470;12.072;2022-09-16T03:27:38;0.80;;;0.80;;
9330;SDS011;4704;50.470;12.072;2022-09-16T03:30:09;1.17;;;0.90;;
9330;SDS011;4704;50.470;12.072;2022-09-16T03:32:38;1.05;;;0.95;;
9330;SDS011;4704;50.470;12.072;2022-09-16T03:35:08;0.85;;;0.85;;
9330;SDS011;4704;50.470;12.072;2022-09-16T03:37:38;0.93;;;0.93;;
9330;SDS011;4704;50.470;12.072;2022-09-16T03:40:08;0.93;;;0.88;;
9330;SDS011;4704;50.470;12.072;2022-09-16T03:42:37;0.90;;;0.90;;
9330;SDS011;4704;50.470;12.072;2022-09-16T03:45:05;0.90;;;0.90;;
9330;SDS011;4704;50.470;12.072;2022-09-16T03:47:33;1.45;;;0.98;;
9330;SDS011;4704;50.470;12.072;2022-09-16T03:50:01;0.70;;;0.70;;
9330;SDS011;4704;50.470;12.072;2022-09-16T03:52:28;0.80;;;0.80;;
9330;SDS011;4704;50.470;12.072;2022-09-16T03:54:56;0.90;;;0.80;;
9330;SDS011;4704;50.470;12.072;2022-09-16T03:57:24;0.80;;;0.80;;
9330;SDS011;4704;50.470;12.072;2022-09-16T03:59:54;0.80;;;0.80;;
9330;SDS011;4704;50.470;12.072;2022-09-16T04:02:21;0.90;;;0.90;;
9330;SDS011;4704;50.470;12.072;2022-09-16T04:04:49;1.00;;;1.00;;
9330;SDS011;4704;50.470;12.072;2022-09-16T04:07:17;0.82;;;0.82;;
9330;SDS011;4704;50.470;12.072;2022-09-16T04:09:45;1.05;;;0.95;;
9330;SDS011;4704;50.470;12.072;2022-09-16T04:12:12;0.80;;;0.80;;
9330;SDS011;4704;50.470;12.072;2022-09-16T04:14:41;0.88;;;0.88;;
9330;SDS011;4704;50.470;12.072;2022-09-16T04:17:09;1.10;;;1.00;;
9330;SDS011;4704;50.470;12.072;2022-09-16T04:19:36;1.10;;;1.00;;
9330;SDS011;4704;50.470;12.072;2022-09-16T04:22:04;1.00;;;1.00;;
9330;SDS011;4704;50.470;12.072;2022-09-16T04:24:31;1.02;;;0.93;;
9330;SDS011;4704;50.470;12.072;2022-09-16T04:26:59;0.85;;;0.85;;
9330;SDS011;4704;50.470;12.072;2022-09-16T04:29:27;0.85;;;0.85;;
9330;SDS011;4704;50.470;12.072;2022-09-16T04:31:56;0.90;;;0.90;;
9330;SDS011;4704;50.470;12.072;2022-09-16T04:34:24;0.88;;;0.88;;
9330;SDS011;4704;50.470;12.072;2022-09-16T04:36:51;0.90;;;0.90;;
9330;SDS011;4704;50.470;12.072;2022-09-16T04:39:19;1.00;;;1.00;;
9330;SDS011;4704;50.470;12.072;2022-09-16T04:41:47;0.90;;;0.90;;
9330;SDS011;4704;50.470;12.072;2022-09-16T04:44:14;0.98;;;0.98;;
9330;SDS011;4704;50.470;12.072;2022-09-16T04:46:42;1.00;;;1.00;;
9330;SDS011;4704;50.470;12.072;2022-09-16T04:49:10;0.95;;;0.95;;
9330;SDS011;4704;50.470;12.072;2022-09-16T04:51:38;0.98;;;0.98;;
9330;SDS011;4704;50.470;12.072;2022-09-16T04:54:05;1.00;;;1.00;;
9330;SDS011;4704;50.470;12.072;2022-09-16T04:56:33;0.90;;;0.90;;
9330;SDS011;4704;50.470;12.072;2022-09-16T04:59:02;1.10;;;1.10;;
9330;SDS011;4704;50.470;12.072;2022-09-16T05:01:30;0.93;;;0.93;;
9330;SDS011;4704;50.470;12.072;2022-09-16T05:03:59;1.00;;;1.00;;
9330;SDS011;4704;50.470;12.072;2022-09-16T05:06:30;0.90;;;0.90;;
9330;SDS011;4704;50.470;12.072;2022-09-16T05:08:58;0.85;;;0.85;;
9330;SDS011;4704;50.470;12.072;2022-09-16T05:11:27;0.90;;;0.90;;
9330;SDS011;4704;50.470;12.072;2022-09-16T05:13:56;0.80;;;0.80;;
9330;SDS011;4704;50.470;12.072;2022-09-16T05:16:24;1.15;;;0.95;;
9330;SDS011;4704;50.470;12.072;2022-09-16T05:18:53;1.00;;;1.00;;
9330;SDS011;4704;50.470;12.072;2022-09-16T05:21:21;1.00;;;1.00;;
9330;SDS011;4704;50.470;12.072;2022-09-16T05:23:50;0.90;;;0.90;;
9330;SDS011;4704;50.470;12.072;2022-09-16T05:26:19;0.88;;;0.88;;
9330;SDS011;4704;50.470;12.072;2022-09-16T05:28:46;1.00;;;1.00;;
9330;SDS011;4704;50.470;12.072;2022-09-16T05:31:15;1.00;;;1.00;;
9330;SDS011;4704;50.470;12.072;2022-09-16T05:33:43;1.00;;;1.00;;
9330;SDS011;4704;50.470;12.072;2022-09-16T05:36:12;1.13;;;1.05;;
9330;SDS011;4704;50.470;12.072;2022-09-16T05:38:40;1.10;;;1.00;;
9330;SDS011;4704;50.470;12.072;2022-09-16T05:41:09;1.20;;;1.10;;
9330;SDS011;4704;50.470;12.072;2022-09-16T05:43:37;1.20;;;1.10;;
9330;SDS011;4704;50.470;12.072;2022-09-16T05:46:04;1.52;;;0.90;;
9330;SDS011;4704;50.470;12.072;2022-09-16T05:48:32;1.13;;;1.10;;
9330;SDS011;4704;50.470;12.072;2022-09-16T05:51:01;1.02;;;0.93;;
9330;SDS011;4704;50.470;12.072;2022-09-16T05:53:29;0.93;;;0.93;;
9330;SDS011;4704;50.470;12.072;2022-09-16T05:55:58;1.20;;;1.10;;
9330;SDS011;4704;50.470;12.072;2022-09-16T05:58:27;1.20;;;1.10;;
9330;SDS011;4704;50.470;12.072;2022-09-16T06:00:57;1.20;;;1.10;;
9330;SDS011;4704;50.470;12.072;2022-09-16T06:03:24;1.20;;;1.10;;
9330;SDS011;4704;50.470;12.072;2022-09-16T06:05:57;1.13;;;1.02;;
9330;SDS011;4704;50.470;12.072;2022-09-16T06:08:25;1.65;;;0.90;;
9330;SDS011;4704;50.470;12.072;2022-09-16T06:10:52;0.93;;;0.93;;
9330;SDS011;4704;50.470;12.072;2022-09-16T06:13:20;1.05;;;0.90;;
9330;SDS011;4704;50.470;12.072;2022-09-16T06:15:49;0.80;;;0.80;;
9330;SDS011;4704;50.470;12.072;2022-09-16T06:18:18;1.02;;;0.98;;
9330;SDS011;4704;50.470;12.072;2022-09-16T06:20:46;1.13;;;1.10;;
9330;SDS011;4704;50.470;12.072;2022-09-16T06:23:13;1.00;;;0.90;;
9330;SDS011;4704;50.470;12.072;2022-09-16T06:25:41;0.93;;;0.93;;
9330;SDS011;4704;50.470;12.072;2022-09-16T06:28:09;1.38;;;1.00;;
9330;SDS011;4704;50.470;12.072;2022-09-16T06:30:37;0.95;;;0.95;;
9330;SDS011;4704;50.470;12.072;2022-09-16T06:33:06;1.17;;;1.08;;
9330;SDS011;4704;50.470;12.072;2022-09-16T06:35:35;1.42;;;0.90;;
9330;SDS011;4704;50.470;12.072;2022-09-16T06:38:03;1.00;;;1.00;;
9330;SDS011;4704;50.470;12.072;2022-09-16T06:40:30;1.42;;;1.00;;
9330;SDS011;4704;50.470;12.072;2022-09-16T06:42:58;0.82;;;0.82;;
9330;SDS011;4704;50.470;12.072;2022-09-16T06:45:25;1.80;;;1.00;;
9330;SDS011;4704;50.470;12.072;2022-09-16T06:47:57;1.00;;;0.90;;
9330;SDS011;4704;50.470;12.072;2022-09-16T06:50:26;0.90;;;0.90;;
9330;SDS011;4704;50.470;12.072;2022-09-16T06:52:54;1.58;;;1.00;;
9330;SDS011;4704;50.470;12.072;2022-09-16T06:55:21;1.00;;;1.00;;
9330;SDS011;4704;50.470;12.072;2022-09-16T06:57:49;1.25;;;1.00;;
9330;SDS011;4704;50.470;12.072;2022-09-16T07:00:16;1.23;;;1.00;;
9330;SDS011;4704;50.470;12.072;2022-09-16T07:02:44;1.45;;;1.10;;
9330;SDS011;4704;50.470;12.072;2022-09-16T07:05:11;0.90;;;0.90;;
9330;SDS011;4704;50.470;12.072;2022-09-16T07:07:40;0.85;;;0.85;;
9330;SDS011;4704;50.470;12.072;2022-09-16T07:10:08;1.00;;;1.00;;
9330;SDS011;4704;50.470;12.072;2022-09-16T07:12:35;0.80;;;0.80;;
9330;SDS011;4704;50.470;12.072;2022-09-16T07:15:03;1.05;;;0.85;;
9330;SDS011;4704;50.470;12.072;2022-09-16T07:17:31;0.93;;;0.93;;
9330;SDS011;4704;50.470;12.072;2022-09-16T07:19:59;1.35;;;1.05;;
9330;SDS011;4704;50.470;12.072;2022-09-16T07:22:29;1.20;;;1.10;;
9330;SDS011;4704;50.470;12.072;2022-09-16T07:24:58;0.98;;;0.98;;
9330;SDS011;4704;50.470;12.072;2022-09-16T07:27:26;1.45;;;1.10;;
9330;SDS011;4704;50.470;12.072;2022-09-16T07:29:53;0.80;;;0.80;;
9330;SDS011;4704;50.470;12.072;2022-09-16T07:32:21;1.00;;;1.00;;
9330;SDS011;4704;50.470;12.072;2022-09-16T07:34:48;0.98;;;0.98;;
9330;SDS011;4704;50.470;12.072;2022-09-16T07:37:16;1.23;;;1.00;;
9330;SDS011;4704;50.470;12.072;2022-09-16T07:39:44;1.67;;;1.13;;
9330;SDS011;4704;50.470;12.072;2022-09-16T07:42:13;0.95;;;0.95;;
9330;SDS011;4704;50.470;12.072;2022-09-16T07:44:41;0.90;;;0.90;;
9330;SDS011;4704;50.470;12.072;2022-09-16T07:47:09;0.93;;;0.90;;
9330;SDS011;4704;50.470;12.072;2022-09-16T07:49:36;0.93;;;0.93;;
9330;SDS011;4704;50.470;12.072;2022-09-16T07:52:04;0.80;;;0.80;;
9330;SDS011;4704;50.470;12.072;2022-09-16T07:54:32;0.80;;;0.80;;
9330;SDS011;4704;50.470;12.072;2022-09-16T07:56:59;1.05;;;0.90;;
9330;SDS011;4704;50.470;12.072;2022-09-16T07:59:28;1.08;;;1.08;;
9330;SDS011;4704;50.470;12.072;2022-09-16T08:01:55;1.17;;;1.00;;
9330;SDS011;4704;50.470;12.072;2022-09-16T08:04:23;0.80;;;0.80;;
9330;SDS011;4704;50.470;12.072;2022-09-16T08:06:50;1.05;;;1.00;;
9330;SDS011;4704;50.470;12.072;2022-09-16T08:09:18;1.10;;;1.00;;
9330;SDS011;4704;50.470;12.072;2022-09-16T08:11:47;0.93;;;0.93;;
9330;SDS011;4704;50.470;12.072;2022-09-16T08:14:14;1.00;;;1.00;;
9330;SDS011;4704;50.470;12.072;2022-09-16T08:16:43;1.05;;;1.00;;
9330;SDS011;4704;50.470;12.072;2022-09-16T08:19:10;1.20;;;1.10;;
9330;SDS011;4704;50.470;12.072;2022-09-16T08:21:38;1.13;;;1.00;;
9330;SDS011;4704;50.470;12.072;2022-09-16T08:24:05;2.53;;;1.00;;
9330;SDS011;4704;50.470;12.072;2022-09-16T08:26:33;1.15;;;1.05;;
9330;SDS011;4704;50.470;12.072;2022-09-16T08:29:01;1.38;;;1.00;;
9330;SDS011;4704;50.470;12.072;2022-09-16T08:31:29;1.20;;;1.10;;
9330;SDS011;4704;50.470;12.072;2022-09-16T08:33:58;0.95;;;0.95;;
9330;SDS011;4704;50.470;12.072;2022-09-16T08:36:25;1.10;;;1.00;;
9330;SDS011;4704;50.470;12.072;2022-09-16T08:38:53;1.10;;;1.10;;
9330;SDS011;4704;50.470;12.072;2022-09-16T08:41:33;1.35;;;1.10;;
9330;SDS011;4704;50.470;12.072;2022-09-16T08:44:08;1.65;;;1.10;;
9330;SDS011;4704;50.470;12.072;2022-09-16T08:46:40;1.00;;;1.00;;
9330;SDS011;4704;50.470;12.072;2022-09-16T08:49:15;1.38;;;1.10;;
9330;SDS011;4704;50.470;12.072;2022-09-16T08:51:43;1.02;;;1.00;;
9330;SDS011;4704;50.470;12.072;2022-09-16T08:54:12;1.15;;;1.02;;
9330;SDS011;4704;50.470;12.072;2022-09-16T08:56:41;1.20;;;1.10;;
9330;SDS011;4704;50.470;12.072;2022-09-16T08:59:11;1.50;;;1.02;;
9330;SDS011;4704;50.470;12.072;2022-09-16T09:01:40;1.38;;;1.20;;
9330;SDS011;4704;50.470;12.072;2022-09-16T09:04:09;1.30;;;1.20;;
9330;SDS011;4704;50.470;12.072;2022-09-16T09:06:45;1.77;;;1.00;;
9330;SDS011;4704;50.470;12.072;2022-09-16T09:09:20;1.50;;;1.20;;
9330;SDS011;4704;50.470;12.072;2022-09-16T09:11:53;1.15;;;1.10;;
9330;SDS011;4704;50.470;12.072;2022-09-16T09:14:26;1.58;;;1.10;;
9330;SDS011;4704;50.470;12.072;2022-09-16T09:16:58;1.27;;;1.20;;
9330;SDS011;4704;50.470;12.072;2022-09-16T09:19:32;1.00;;;1.00;;
9330;SDS011;4704;50.470;12.072;2022-09-16T09:22:04;1.33;;;1.00;;
9330;SDS011;4704;50.470;12.072;2022-09-16T09:24:39;0.90;;;0.90;;
9330;SDS011;4704;50.470;12.072;2022-09-16T09:27:09;1.10;;;1.00;;
9330;SDS011;4704;50.470;12.072;2022-09-16T09:29:43;1.30;;;1.20;;
9330;SDS011;4704;50.470;12.072;2022-09-16T09:32:19;1.27;;;1.17;;
9330;SDS011;4704;50.470;12.072;2022-09-16T09:34:51;1.20;;;1.10;;
9330;SDS011;4704;50.470;12.072;2022-09-16T09:37:28;1.23;;;1.08;;
9330;SDS011;4704;50.470;12.072;2022-09-16T09:39:59;1.00;;;0.90;;
9330;SDS011;4704;50.470;12.072;2022-09-16T09:42:33;1.30;;;1.20;;
9330;SDS011;4704;50.470;12.072;2022-09-16T09:45:02;1.50;;;1.00;;
9330;SDS011;4704;50.470;12.072;2022-09-16T09:47:31;1.08;;;1.00;;
9330;SDS011;4704;50.470;12.072;2022-09-16T09:50:02;1.20;;;1.10;;
9330;SDS011;4704;50.470;12.072;2022-09-16T09:52:33;1.17;;;1.02;;
9330;SDS011;4704;50.470;12.072;2022-09-16T09:55:11;1.30;;;1.20;;
9330;SDS011;4704;50.470;12.072;2022-09-16T09:57:40;1.02;;;0.93;;
9330;SDS011;4704;50.470;12.072;2022-09-16T10:00:10;1.08;;;1.00;;
9330;SDS011;4704;50.470;12.072;2022-09-16T10:02:39;1.05;;;1.05;;
9330;SDS011;4704;50.470;12.072;2022-09-16T10:05:09;1.80;;;1.20;;
9330;SDS011;4704;50.470;12.072;2022-09-16T10:07:43;0.90;;;0.90;;
9330;SDS011;4704;50.470;12.072;2022-09-16T10:10:11;1.05;;;1.05;;
9330;SDS011;4704;50.470;12.072;2022-09-16T10:12:40;1.10;;;1.00;;
9330;SDS011;4704;50.470;12.072;2022-09-16T10:15:17;1.13;;;1.02;;
9330;SDS011;4704;50.470;12.072;2022-09-16T10:17:47;1.02;;;1.00;;
9330;SDS011;4704;50.470;12.072;2022-09-16T10:20:20;1.20;;;1.10;;
9330;SDS011;4704;50.470;12.072;2022-09-16T10:22:54;1.10;;;1.00;;
9330;SDS011;4704;50.470;12.072;2022-09-16T10:25:24;0.93;;;0.90;;
9330;SDS011;4704;50.470;12.072;2022-09-16T10:27:55;1.23;;;1.13;;
9330;SDS011;4704;50.470;12.072;2022-09-16T10:30:25;1.27;;;1.10;;
9330;SDS011;4704;50.470;12.072;2022-09-16T10:32:54;0.90;;;0.90;;
9330;SDS011;4704;50.470;12.072;2022-09-16T10:35:22;1.35;;;1.20;;
9330;SDS011;4704;50.470;12.072;2022-09-16T10:37:51;1.30;;;1.20;;
9330;SDS011;4704;50.470;12.072;2022-09-16T10:40:20;1.33;;;1.10;;
9330;SDS011;4704;50.470;12.072;2022-09-16T10:42:49;1.00;;;1.00;;
9330;SDS011;4704;50.470;12.072;2022-09-16T10:45:24;1.20;;;1.10;;
9330;SDS011;4704;50.470;12.072;2022-09-16T10:47:53;1.13;;;1.08;;
9330;SDS011;4704;50.470;12.072;2022-09-16T10:50:21;1.42;;;1.13;;
9330;SDS011;4704;50.470;12.072;2022-09-16T10:52:49;1.20;;;1.15;;
9330;SDS011;4704;50.470;12.072;2022-09-16T10:55:23;1.17;;;1.10;;
9330;SDS011;4704;50.470;12.072;2022-09-16T10:57:52;1.70;;;1.20;;
9330;SDS011;4704;50.470;12.072;2022-09-16T11:00:20;1.00;;;1.00;;
9330;SDS011;4704;50.470;12.072;2022-09-16T11:03:02;1.00;;;0.90;;
9330;SDS011;4704;50.470;12.072;2022-09-16T11:05:35;1.10;;;1.10;;
9330;SDS011;4704;50.470;12.072;2022-09-16T11:08:22;1.00;;;1.00;;
9330;SDS011;4704;50.470;12.072;2022-09-16T11:10:55;1.08;;;1.00;;
9330;SDS011;4704;50.470;12.072;2022-09-16T11:13:36;1.02;;;1.00;;
9330;SDS011;4704;50.470;12.072;2022-09-16T11:16:14;1.00;;;1.00;;
9330;SDS011;4704;50.470;12.072;2022-09-16T11:18:48;1.10;;;1.00;;
9330;SDS011;4704;50.470;12.072;2022-09-16T11:21:24;1.13;;;0.90;;
9330;SDS011;4704;50.470;12.072;2022-09-16T11:23:59;1.20;;;1.10;;
9330;SDS011;4704;50.470;12.072;2022-09-16T11:26:35;0.90;;;0.90;;
9330;SDS011;4704;50.470;12.072;2022-09-16T11:29:15;0.95;;;0.90;;
9330;SDS011;4704;50.470;12.072;2022-09-16T11:31:48;1.02;;;1.00;;
9330;SDS011;4704;50.470;12.072;2022-09-16T11:34:22;0.82;;;0.82;;
9330;SDS011;4704;50.470;12.072;2022-09-16T11:36:53;0.90;;;0.90;;
9330;SDS011;4704;50.470;12.072;2022-09-16T11:39:28;1.10;;;1.00;;
9330;SDS011;4704;50.470;12.072;2022-09-16T11:42:03;0.80;;;0.80;;
9330;SDS011;4704;50.470;12.072;2022-09-16T11:44:38;0.90;;;0.90;;
9330;SDS011;4704;50.470;12.072;2022-09-16T11:47:11;1.00;;;0.85;;
9330;SDS011;4704;50.470;12.072;2022-09-16T11:49:44;1.10;;;1.00;;
9330;SDS011;4704;50.470;12.072;2022-09-16T11:52:17;0.95;;;0.93;;
9330;SDS011;4704;50.470;12.072;2022-09-16T11:54:55;0.85;;;0.85;;
9330;SDS011;4704;50.470;12.072;2022-09-16T11:57:27;0.80;;;0.80;;
9330;SDS011;4704;50.470;12.072;2022-09-16T11:59:56;0.85;;;0.80;;
9330;SDS011;4704;50.470;12.072;2022-09-16T12:02:26;0.90;;;0.90;;
9330;SDS011;4704;50.470;12.072;2022-09-16T12:04:57;0.75;;;0.75;;
9330;SDS011;4704;50.470;12.072;2022-09-16T12:07:28;0.77;;;0.77;;
9330;SDS011;4704;50.470;12.072;2022-09-16T12:09:57;0.80;;;0.80;;
9330;SDS011;4704;50.470;12.072;2022-09-16T12:12:28;1.00;;;1.00;;
9330;SDS011;4704;50.470;12.072;2022-09-16T12:14:58;0.70;;;0.70;;
9330;SDS011;4704;50.470;12.072;2022-09-16T12:17:28;0.90;;;0.90;;
9330;SDS011;4704;50.470;12.072;2022-09-16T12:19:58;0.90;;;0.90;;
9330;SDS011;4704;50.470;12.072;2022-09-16T12:22:28;0.90;;;0.90;;
9330;SDS011;4704;50.470;12.072;2022-09-16T12:24:59;0.90;;;0.90;;
9330;SDS011;4704;50.470;12.072;2022-09-16T12:27:36;0.80;;;0.80;;
9330;SDS011;4704;50.470;12.072;2022-09-16T12:30:07;1.35;;;0.80;;
9330;SDS011;4704;50.470;12.072;2022-09-16T12:32:41;0.80;;;0.80;;
9330;SDS011;4704;50.470;12.072;2022-09-16T12:35:11;0.93;;;0.93;;
9330;SDS011;4704;50.470;12.072;2022-09-16T12:37:42;0.75;;;0.75;;
9330;SDS011;4704;50.470;12.072;2022-09-16T12:40:12;0.93;;;0.85;;
9330;SDS011;4704;50.470;12.072;2022-09-16T12:42:53;0.90;;;0.90;;
9330;SDS011;4704;50.470;12.072;2022-09-16T12:45:33;0.80;;;0.80;;
9330;SDS011;4704;50.470;12.072;2022-09-16T12:48:10;1.30;;;0.80;;
9330;SDS011;4704;50.470;12.072;2022-09-16T12:50:50;0.80;;;0.80;;
9330;SDS011;4704;50.470;12.072;2022-09-16T12:56:07;1.25;;;0.70;;
9330;SDS011;4704;50.470;12.072;2022-09-16T12:58:44;0.60;;;0.60;;
9330;SDS011;4704;50.470;12.072;2022-09-16T13:01:16;0.90;;;0.80;;
9330;SDS011;4704;50.470;12.072;2022-09-16T13:03:47;1.08;;;0.80;;
9330;SDS011;4704;50.470;12.072;2022-09-16T13:06:22;0.90;;;0.80;;
9330;SDS011;4704;50.470;12.072;2022-09-16T13:08:51;0.70;;;0.70;;
9330;SDS011;4704;50.470;12.072;2022-09-16T13:11:20;1.05;;;0.95;;
9330;SDS011;4704;50.470;12.072;2022-09-16T13:13:50;1.00;;;0.77;;
9330;SDS011;4704;50.470;12.072;2022-09-16T13:16:28;0.90;;;0.90;;
9330;SDS011;4704;50.470;12.072;2022-09-16T13:21:59;0.77;;;0.77;;
9330;SDS011;4704;50.470;12.072;2022-09-16T13:24:30;0.80;;;0.80;;
9330;SDS011;4704;50.470;12.072;2022-09-16T13:27:01;1.15;;;0.90;;
9330;SDS011;4704;50.470;12.072;2022-09-16T13:29:40;0.70;;;0.70;;
9330;SDS011;4704;50.470;12.072;2022-09-16T13:35:01;0.95;;;0.90;;
9330;SDS011;4704;50.470;12.072;2022-09-16T13:37:28;0.85;;;0.80;;
9330;SDS011;4704;50.470;12.072;2022-09-16T13:40:06;0.60;;;0.60;;
9330;SDS011;4704;50.470;12.072;2022-09-16T13:42:34;0.70;;;0.70;;
9330;SDS011;4704;50.470;12.072;2022-09-16T13:45:17;0.80;;;0.80;;
9330;SDS011;4704;50.470;12.072;2022-09-16T13:47:51;1.13;;;0.77;;
9330;SDS011;4704;50.470;12.072;2022-09-16T13:50:19;0.75;;;0.75;;
9330;SDS011;4704;50.470;12.072;2022-09-16T13:52:50;0.70;;;0.70;;
9330;SDS011;4704;50.470;12.072;2022-09-16T13:55:19;0.80;;;0.80;;
9330;SDS011;4704;50.470;12.072;2022-09-16T13:57:57;0.85;;;0.80;;
9330;SDS011;4704;50.470;12.072;2022-09-16T14:00:28;0.98;;;0.85;;
9330;SDS011;4704;50.470;12.072;2022-09-16T14:03:10;0.93;;;0.90;;
9330;SDS011;4704;50.470;12.072;2022-09-16T14:05:44;1.85;;;0.85;;
9330;SDS011;4704;50.470;12.072;2022-09-16T14:08:16;0.80;;;0.80;;
9330;SDS011;4704;50.470;12.072;2022-09-16T14:10:48;0.98;;;0.80;;
9330;SDS011;4704;50.470;12.072;2022-09-16T14:13:18;1.02;;;0.93;;
9330;SDS011;4704;50.470;12.072;2022-09-16T14:15:48;0.70;;;0.63;;
9330;SDS011;4704;50.470;12.072;2022-09-16T14:18:17;0.68;;;0.68;;
9330;SDS011;4704;50.470;12.072;2022-09-16T14:20:54;0.95;;;0.80;;
9330;SDS011;4704;50.470;12.072;2022-09-16T14:23:22;0.82;;;0.68;;
9330;SDS011;4704;50.470;12.072;2022-09-16T14:25:50;0.57;;;0.57;;
9330;SDS011;4704;50.470;12.072;2022-09-16T14:28:18;0.68;;;0.68;;
9330;SDS011;4704;50.470;12.072;2022-09-16T14:30:48;0.70;;;0.70;;
9330;SDS011;4704;50.470;12.072;2022-09-16T14:33:18;0.82;;;0.75;;
9330;SDS011;4704;50.470;12.072;2022-09-16T14:35:46;0.70;;;0.70;;
9330;SDS011;4704;50.470;12.072;2022-09-16T14:38:14;1.95;;;0.73;;
9330;SDS011;4704;50.470;12.072;2022-09-16T14:40:43;0.73;;;0.70;;
9330;SDS011;4704;50.470;12.072;2022-09-16T14:43:14;0.80;;;0.77;;
9330;SDS011;4704;50.470;12.072;2022-09-16T14:45:44;1.45;;;0.65;;
9330;SDS011;4704;50.470;12.072;2022-09-16T14:48:13;0.65;;;0.60;;
9330;SDS011;4704;50.470;12.072;2022-09-16T14:50:42;2.10;;;0.80;;
9330;SDS011;4704;50.470;12.072;2022-09-16T14:53:21;0.82;;;0.50;;
9330;SDS011;4704;50.470;12.072;2022-09-16T14:55:49;0.90;;;0.60;;
9330;SDS011;4704;50.470;12.072;2022-09-16T14:58:17;0.70;;;0.60;;
9330;SDS011;4704;50.470;12.072;2022-09-16T15:00:45;0.82;;;0.57;;
9330;SDS011;4704;50.470;12.072;2022-09-16T15:03:15;0.60;;;0.60;;
9330;SDS011;4704;50.470;12.072;2022-09-16T15:05:46;1.23;;;0.70;;
9330;SDS011;4704;50.470;12.072;2022-09-16T15:08:16;0.70;;;0.70;;
9330;SDS011;4704;50.470;12.072;2022-09-16T15:10:45;1.30;;;0.60;;
9330;SDS011;4704;50.470;12.072;2022-09-16T15:13:13;0.73;;;0.60;;
9330;SDS011;4704;50.470;12.072;2022-09-16T15:15:44;0.60;;;0.60;;
9330;SDS011;4704;50.470;12.072;2022-09-16T15:18:18;1.85;;;0.88;;
9330;SDS011;4704;50.470;12.072;2022-09-16T15:20:51;0.50;;;0.50;;
9330;SDS011;4704;50.470;12.072;2022-09-16T15:23:19;0.73;;;0.60;;
9330;SDS011;4704;50.470;12.072;2022-09-16T15:25:51;0.85;;;0.75;;
9330;SDS011;4704;50.470;12.072;2022-09-16T15:28:19;0.63;;;0.50;;
9330;SDS011;4704;50.470;12.072;2022-09-16T15:30:47;0.90;;;0.65;;
9330;SDS011;4704;50.470;12.072;2022-09-16T15:33:22;0.60;;;0.60;;